createdAt,value
2022-08-19T00:02:10.685Z,20.63
2022-08-19T00:04:37.949Z,20.63
2022-08-19T00:07:07.347Z,20.62
2022-08-19T00:09:34.682Z,20.53
2022-08-19T00:12:02.481Z,20.45
2022-08-19T00:14:32.316Z,20.45
2022-08-19T00:17:00.352Z,20.52
2022-08-19T00:19:27.852Z,20.49
2022-08-19T00:21:57.465Z,20.43
2022-08-19T00:24:25.183Z,20.46
2022-08-19T00:26:53.506Z,20.45
2022-08-19T00:29:22.112Z,20.41
2022-08-19T00:31:50.700Z,20.44
2022-08-19T00:34:18.299Z,20.44
2022-08-19T00:36:46.374Z,20.31
2022-08-19T00:39:13.878Z,20.28
2022-08-19T00:41:41.529Z,20.31
2022-08-19T00:44:16.021Z,20.34
2022-08-19T00:46:55.455Z,20.32
2022-08-19T00:49:51.636Z,20.34
2022-08-19T00:52:30.072Z,20.39
2022-08-19T00:54:58.865Z,20.42
2022-08-19T00:57:42.877Z,20.52
2022-08-19T01:00:14.421Z,20.49
2022-08-19T01:02:42.815Z,20.53
2022-08-19T01:05:16.893Z,20.56
2022-08-19T01:07:44.178Z,20.50
2022-08-19T01:10:14.903Z,20.54
2022-08-19T01:12:42.233Z,20.60
2022-08-19T01:15:12.067Z,20.56
2022-08-19T01:17:40.700Z,20.55
2022-08-19T01:20:12.399Z,20.55
2022-08-19T01:22:49.084Z,20.59
2022-08-19T01:25:18.944Z,20.59
2022-08-19T01:27:50.063Z,20.48
2022-08-19T01:30:24.926Z,20.53
2022-08-19T01:32:52.752Z,20.50
2022-08-19T01:35:21.117Z,20.41
2022-08-19T01:38:00.940Z,20.45
2022-08-19T01:40:32.436Z,20.42
2022-08-19T01:42:59.422Z,20.35
2022-08-19T01:45:29.046Z,20.34
2022-08-19T01:48:02.085Z,20.35
2022-08-19T01:50:31.619Z,20.32
2022-08-19T01:53:02.449Z,20.27
2022-08-19T01:55:35.864Z,20.27
2022-08-19T01:58:13.253Z,20.19
2022-08-19T02:00:40.702Z,20.13
2022-08-19T02:03:07.921Z,20.12
2022-08-19T02:05:35.348Z,20.09
2022-08-19T02:08:02.820Z,20.13
2022-08-19T02:10:29.935Z,20.01
2022-08-19T02:12:57.068Z,20.08
2022-08-19T02:15:25.666Z,20.03
2022-08-19T02:17:52.994Z,20.03
2022-08-19T02:20:19.993Z,20.03
2022-08-19T02:22:47.194Z,19.97
2022-08-19T02:25:15.523Z,19.92
2022-08-19T02:27:43.278Z,19.97
2022-08-19T02:30:17.020Z,20.01
2022-08-19T02:32:45.189Z,20.04
2022-08-19T02:35:14.450Z,20.13
2022-08-19T02:38:03.642Z,20.14
2022-08-19T02:40:34.836Z,20.27
2022-08-19T02:43:10.790Z,20.19
2022-08-19T02:45:41.572Z,20.28
2022-08-19T02:48:21.344Z,20.24
2022-08-19T02:50:56.020Z,20.24
2022-08-19T02:53:25.625Z,20.26
2022-08-19T02:55:53.259Z,20.30
2022-08-19T02:58:21.055Z,20.24
2022-08-19T03:00:51.210Z,20.29
2022-08-19T03:03:19.868Z,20.25
2022-08-19T03:05:56.015Z,20.21
2022-08-19T03:08:24.038Z,20.11
2022-08-19T03:10:53.092Z,20.11
2022-08-19T03:13:20.239Z,20.09
2022-08-19T03:15:48.650Z,20.20
2022-08-19T03:18:16.235Z,20.15
2022-08-19T03:20:47.353Z,20.27
2022-08-19T03:23:16.344Z,20.33
2022-08-19T03:26:05.622Z,20.35
2022-08-19T03:28:36.133Z,20.29
2022-08-19T03:31:44.940Z,20.38
2022-08-19T03:34:04.588Z,20.32
2022-08-19T03:36:35.419Z,20.41
2022-08-19T03:39:03.122Z,20.37
2022-08-19T03:41:34.365Z,20.30
2022-08-19T03:44:12.671Z,20.30
2022-08-19T03:46:50.755Z,20.27
2022-08-19T03:49:18.879Z,20.29
2022-08-19T03:51:48.492Z,20.30
2022-08-19T03:54:17.594Z,20.36
2022-08-19T03:56:46.478Z,20.40
2022-08-19T03:59:18.882Z,20.39
2022-08-19T04:01:46.777Z,20.34
2022-08-19T04:04:13.860Z,20.24
2022-08-19T04:06:40.935Z,20.30
2022-08-19T04:09:10.827Z,20.38
2022-08-19T04:11:49.400Z,20.36
2022-08-19T04:14:20.836Z,20.38
2022-08-19T04:16:49.587Z,20.34
2022-08-19T04:19:18.291Z,20.38
2022-08-19T04:21:52.421Z,20.33
2022-08-19T04:24:20.077Z,20.33
2022-08-19T04:26:47.967Z,20.31
2022-08-19T04:29:17.839Z,20.38
2022-08-19T04:31:46.263Z,20.40
2022-08-19T04:34:16.138Z,20.36
2022-08-19T04:36:46.021Z,20.41
2022-08-19T04:39:16.708Z,20.43
2022-08-19T04:42:03.860Z,20.45
2022-08-19T04:44:33.144Z,20.50
2022-08-19T04:47:01.542Z,20.56
2022-08-19T04:49:29.013Z,20.56
2022-08-19T04:51:56.747Z,20.48
2022-08-19T04:54:36.930Z,20.43
2022-08-19T04:57:11.148Z,20.41
2022-08-19T04:59:39.733Z,20.42
2022-08-19T05:02:09.708Z,20.29
2022-08-19T05:04:40.329Z,20.35
2022-08-19T05:07:09.289Z,20.34
2022-08-19T05:09:57.702Z,20.32
2022-08-19T05:12:28.736Z,20.25
2022-08-19T05:14:58.431Z,20.30
2022-08-19T05:17:29.476Z,20.39
2022-08-19T05:20:17.106Z,20.42
2022-08-19T05:22:47.814Z,20.42
2022-08-19T05:25:20.095Z,20.47
2022-08-19T05:27:48.436Z,20.46
2022-08-19T05:30:16.523Z,20.47
2022-08-19T05:32:44.242Z,20.50
2022-08-19T05:35:12.772Z,20.42
2022-08-19T05:37:43.732Z,20.43
2022-08-19T05:40:11.404Z,20.44
2022-08-19T05:42:38.873Z,20.38
2022-08-19T05:45:07.003Z,20.32
2022-08-19T05:47:34.204Z,20.38
2022-08-19T05:50:05.028Z,20.38
2022-08-19T05:52:32.679Z,20.27
2022-08-19T05:55:00.699Z,20.19
2022-08-19T05:57:30.210Z,20.27
2022-08-19T05:59:59.121Z,20.28
2022-08-19T06:02:27.628Z,20.21
2022-08-19T06:04:54.762Z,20.14
2022-08-19T06:07:23.079Z,20.20
2022-08-19T06:10:00.000Z,20.06
2022-08-19T06:12:37.790Z,20.10
2022-08-19T06:15:14.417Z,20.04
2022-08-19T06:17:43.158Z,19.97
2022-08-19T06:20:14.280Z,20.08
2022-08-19T06:22:47.472Z,20.09
2022-08-19T06:25:15.594Z,20.06
2022-08-19T06:30:30.661Z,20.03
2022-08-19T06:32:57.701Z,20.08
2022-08-19T06:35:24.971Z,19.99
2022-08-19T06:37:53.582Z,19.87
2022-08-19T06:40:20.951Z,19.86
2022-08-19T06:42:54.366Z,19.81
2022-08-19T06:45:24.941Z,19.82
2022-08-19T06:48:02.401Z,19.87
2022-08-19T06:50:30.561Z,19.72
2022-08-19T06:52:57.947Z,19.76
2022-08-19T06:55:28.383Z,19.83
2022-08-19T06:57:55.439Z,19.95
2022-08-19T07:00:22.572Z,19.90
2022-08-19T07:02:55.789Z,20.00
2022-08-19T07:05:26.919Z,20.06
2022-08-19T07:07:54.415Z,20.00
2022-08-19T07:10:26.269Z,20.14
2022-08-19T07:12:53.805Z,20.30
2022-08-19T07:15:22.236Z,20.40
2022-08-19T07:17:52.509Z,20.38
2022-08-19T07:20:20.648Z,20.39
2022-08-19T07:22:48.866Z,20.50
2022-08-19T07:25:18.166Z,20.53
2022-08-19T07:27:46.215Z,20.60
2022-08-19T07:30:14.493Z,20.52
2022-08-19T07:32:41.886Z,20.52
2022-08-19T07:35:10.322Z,20.37
2022-08-19T07:37:39.222Z,20.38
2022-08-19T07:40:08.521Z,20.36
2022-08-19T07:42:35.816Z,20.47
2022-08-19T07:45:04.153Z,20.44
2022-08-19T07:47:48.779Z,20.42
2022-08-19T07:50:20.318Z,20.37
2022-08-19T07:52:50.598Z,20.44
2022-08-19T07:55:41.817Z,20.48
2022-08-19T07:58:10.985Z,20.54
2022-08-19T08:00:38.858Z,20.68
2022-08-19T08:03:06.054Z,20.68
2022-08-19T08:05:52.227Z,20.73
2022-08-19T08:08:44.209Z,20.73
2022-08-19T08:11:15.697Z,20.72
2022-08-19T08:13:43.193Z,20.58
2022-08-19T08:16:14.414Z,20.70
2022-08-19T08:18:43.337Z,20.70
2022-08-19T08:21:17.425Z,20.66
2022-08-19T08:23:44.894Z,20.64
2022-08-19T08:26:13.982Z,20.59
2022-08-19T08:28:43.177Z,20.56
2022-08-19T08:31:15.574Z,20.55
2022-08-19T08:33:43.342Z,20.60
2022-08-19T08:36:12.378Z,20.58
2022-08-19T08:38:40.857Z,20.59
2022-08-19T08:41:48.624Z,20.61
2022-08-19T08:44:23.368Z,20.62
2022-08-19T08:46:56.724Z,20.73
2022-08-19T08:49:29.997Z,20.60
2022-08-19T08:52:14.666Z,20.65
2022-08-19T08:54:48.833Z,20.69
2022-08-19T08:57:40.810Z,20.77
2022-08-19T09:00:15.310Z,20.75
2022-08-19T09:02:44.519Z,20.79
2022-08-19T09:05:16.862Z,20.91
2022-08-19T09:08:02.038Z,20.95
2022-08-19T09:10:44.000Z,20.97
2022-08-19T09:13:18.378Z,21.00
2022-08-19T09:15:52.752Z,20.96
2022-08-19T09:18:19.987Z,20.98
2022-08-19T09:20:48.840Z,20.94
2022-08-19T09:23:16.915Z,20.94
2022-08-19T09:25:44.162Z,20.99
2022-08-19T09:28:22.155Z,21.02
2022-08-19T09:30:53.390Z,21.07
2022-08-19T09:33:21.151Z,21.05
2022-08-19T09:35:53.158Z,20.99
2022-08-19T09:38:22.140Z,21.12
2022-08-19T09:40:50.867Z,21.10
2022-08-19T09:43:33.553Z,21.07
2022-08-19T09:46:10.369Z,21.16
2022-08-19T09:48:38.187Z,21.21
2022-08-19T09:51:16.751Z,21.22
2022-08-19T09:53:46.396Z,21.27
2022-08-19T09:56:14.985Z,21.34
2022-08-19T09:58:42.818Z,21.31
2022-08-19T10:01:11.240Z,21.23
2022-08-19T10:03:38.501Z,21.29
2022-08-19T10:06:14.884Z,21.29
2022-08-19T10:08:50.116Z,21.29
2022-08-19T10:11:28.435Z,21.54
2022-08-19T10:14:08.969Z,21.55
2022-08-19T10:16:40.674Z,21.65
2022-08-19T10:19:08.915Z,21.47
2022-08-19T10:21:37.854Z,21.50
2022-08-19T10:24:09.526Z,21.47
2022-08-19T10:26:42.900Z,21.56
2022-08-19T10:29:11.547Z,21.39
2022-08-19T10:32:01.417Z,21.37
2022-08-19T10:34:31.445Z,21.33
2022-08-19T10:37:01.314Z,21.27
2022-08-19T10:39:42.998Z,21.34
2022-08-19T10:42:14.375Z,21.24
2022-08-19T10:44:43.082Z,21.29
2022-08-19T10:47:17.914Z,21.25
2022-08-19T10:50:17.540Z,21.24
2022-08-19T10:52:49.700Z,21.26
2022-08-19T10:55:40.228Z,21.26
2022-08-19T10:58:23.480Z,21.15
2022-08-19T11:00:57.743Z,21.21
2022-08-19T11:03:35.122Z,21.22
2022-08-19T11:06:08.998Z,21.23
2022-08-19T11:08:39.170Z,21.14
2022-08-19T11:11:07.905Z,21.10
2022-08-19T11:13:38.474Z,21.07
2022-08-19T11:16:12.367Z,21.20
2022-08-19T11:18:43.865Z,21.21
2022-08-19T11:21:17.961Z,21.27
2022-08-19T11:23:46.437Z,21.28
2022-08-19T11:26:14.722Z,21.38
2022-08-19T11:28:42.766Z,21.31
2022-08-19T11:31:15.775Z,21.35
2022-08-19T11:33:47.658Z,21.49
2022-08-19T11:36:17.440Z,21.52
2022-08-19T11:38:46.240Z,21.43
2022-08-19T11:41:13.528Z,21.53
2022-08-19T11:43:41.245Z,21.46
2022-08-19T11:46:11.268Z,21.41
2022-08-19T11:48:39.207Z,21.47
2022-08-19T11:51:13.143Z,21.55
2022-08-19T11:53:41.011Z,21.43
2022-08-19T11:56:10.385Z,21.40
2022-08-19T11:58:37.886Z,21.41
2022-08-19T12:01:09.965Z,21.49
2022-08-19T12:03:37.170Z,21.56
2022-08-19T12:06:16.486Z,21.67
2022-08-19T12:08:45.495Z,21.82
2022-08-19T12:11:14.683Z,21.78
2022-08-19T12:13:47.057Z,21.69
2022-08-19T12:16:18.705Z,21.90
2022-08-19T12:18:49.410Z,21.96
2022-08-19T12:21:23.183Z,22.28
2022-08-19T12:23:55.594Z,22.36
2022-08-19T12:26:24.634Z,22.43
2022-08-19T12:28:52.076Z,22.33
2022-08-19T12:31:20.785Z,22.30
2022-08-19T12:33:48.945Z,22.38
2022-08-19T12:36:18.662Z,22.26
2022-08-19T12:38:46.543Z,22.44
2022-08-19T12:41:15.601Z,22.36
2022-08-19T12:43:43.465Z,22.32
2022-08-19T12:46:12.181Z,22.44
2022-08-19T12:48:43.759Z,22.38
2022-08-19T12:51:15.727Z,22.33
2022-08-19T12:53:44.013Z,22.25
2022-08-19T12:56:15.645Z,22.20
2022-08-19T12:58:48.727Z,22.16
2022-08-19T13:01:21.954Z,22.12
2022-08-19T13:03:51.403Z,22.10
2022-08-19T13:06:19.044Z,22.23
2022-08-19T13:08:47.503Z,22.33
2022-08-19T13:11:18.595Z,22.55
2022-08-19T13:13:48.381Z,22.76
2022-08-19T13:16:15.806Z,22.98
2022-08-19T13:18:45.447Z,23.12
2022-08-19T13:21:15.839Z,23.08
2022-08-19T13:23:43.147Z,23.01
2022-08-19T13:26:12.674Z,22.91
2022-08-19T13:28:59.894Z,22.86
2022-08-19T13:31:48.712Z,22.98
2022-08-19T13:34:21.198Z,22.95
2022-08-19T13:36:56.634Z,22.90
2022-08-19T13:39:24.916Z,22.85
2022-08-19T13:41:52.361Z,22.76
2022-08-19T13:44:20.746Z,22.71
2022-08-19T13:46:54.095Z,22.65
2022-08-19T13:49:21.812Z,22.85
2022-08-19T13:51:49.057Z,22.83
2022-08-19T13:54:16.655Z,22.99
2022-08-19T13:56:46.150Z,23.13
2022-08-19T13:59:17.746Z,23.05
2022-08-19T14:01:46.234Z,23.26
2022-08-19T14:04:13.593Z,23.39
2022-08-19T14:06:41.490Z,23.48
2022-08-19T14:09:09.241Z,23.38
2022-08-19T14:11:37.186Z,23.39
2022-08-19T14:14:05.334Z,23.49
2022-08-19T14:16:32.775Z,23.64
2022-08-19T14:19:00.685Z,23.50
2022-08-19T14:21:28.801Z,23.45
2022-08-19T14:23:55.875Z,23.39
2022-08-19T14:26:24.139Z,23.48
2022-08-19T14:28:53.524Z,23.44
2022-08-19T14:31:22.476Z,23.48
2022-08-19T14:33:51.321Z,23.48
2022-08-19T14:36:20.837Z,23.56
2022-08-19T14:38:49.825Z,23.61
2022-08-19T14:41:21.432Z,23.74
2022-08-19T14:43:51.027Z,23.89
2022-08-19T14:46:22.079Z,24.20
2022-08-19T14:48:52.563Z,24.67
2022-08-19T14:51:21.671Z,25.10
2022-08-19T14:53:49.853Z,25.21
2022-08-19T14:56:20.913Z,25.17
2022-08-19T14:58:48.158Z,25.34
2022-08-19T15:01:15.398Z,25.64
2022-08-19T15:03:42.583Z,25.70
2022-08-19T15:06:12.591Z,26.40
2022-08-19T15:08:42.276Z,26.77
2022-08-19T15:11:12.479Z,26.99
2022-08-19T15:13:40.568Z,27.63
2022-08-19T15:16:12.260Z,27.47
2022-08-19T15:18:47.296Z,27.52
2022-08-19T15:21:17.892Z,27.81
2022-08-19T15:23:55.747Z,28.23
2022-08-19T15:26:23.205Z,28.03
2022-08-19T15:28:50.331Z,27.52
2022-08-19T15:31:28.096Z,27.46
2022-08-19T15:33:58.466Z,27.34
2022-08-19T15:36:27.095Z,27.26
2022-08-19T15:38:56.143Z,27.34
2022-08-19T15:41:26.779Z,27.37
2022-08-19T15:44:10.211Z,27.24
2022-08-19T15:46:40.768Z,27.29
2022-08-19T15:49:09.640Z,27.26
2022-08-19T15:51:39.209Z,27.38
2022-08-19T15:54:09.078Z,27.30
2022-08-19T15:56:57.970Z,27.02
2022-08-19T15:59:47.136Z,27.09
2022-08-19T16:02:37.914Z,26.86
2022-08-19T16:05:30.496Z,26.57
2022-08-19T16:07:57.906Z,26.31
2022-08-19T16:10:27.375Z,26.36
2022-08-19T16:12:57.399Z,26.86
2022-08-19T16:15:28.056Z,27.13
2022-08-19T16:17:57.239Z,27.42
2022-08-19T16:20:27.550Z,27.46
2022-08-19T16:22:58.233Z,27.38
2022-08-19T16:25:28.627Z,27.36
2022-08-19T16:28:07.037Z,27.29
2022-08-19T16:30:37.840Z,26.74
2022-08-19T16:33:05.638Z,26.47
2022-08-19T16:35:32.876Z,26.33
2022-08-19T16:38:02.516Z,26.06
2022-08-19T16:40:30.067Z,25.95
2022-08-19T16:42:57.166Z,26.00
2022-08-19T16:45:24.735Z,25.85
2022-08-19T16:47:52.269Z,25.88
2022-08-19T16:50:25.386Z,25.81
2022-08-19T16:53:01.218Z,25.70
2022-08-19T16:55:30.831Z,25.53
2022-08-19T16:57:57.882Z,25.46
2022-08-19T17:00:24.996Z,25.37
2022-08-19T17:02:52.812Z,25.33
2022-08-19T17:05:19.901Z,25.17
2022-08-19T17:07:47.057Z,25.17
2022-08-19T17:10:15.180Z,25.23
2022-08-19T17:12:42.918Z,25.16
2022-08-19T17:15:09.951Z,25.09
2022-08-19T17:17:37.418Z,24.95
2022-08-19T17:20:06.872Z,24.79
2022-08-19T17:22:36.848Z,24.63
2022-08-19T17:25:04.941Z,24.58
2022-08-19T17:27:32.399Z,24.57
2022-08-19T17:30:05.204Z,24.52
2022-08-19T17:32:35.133Z,24.46
2022-08-19T17:35:04.194Z,24.50
2022-08-19T17:37:31.332Z,24.45
2022-08-19T17:39:58.583Z,24.45
2022-08-19T17:42:26.540Z,24.38
2022-08-19T17:44:53.764Z,24.33
2022-08-19T17:47:21.233Z,24.23
2022-08-19T17:49:48.572Z,24.09
2022-08-19T17:52:16.366Z,24.07
2022-08-19T17:54:46.562Z,23.97
2022-08-19T17:57:14.454Z,23.91
2022-08-19T17:59:41.525Z,23.89
2022-08-19T18:02:10.823Z,23.91
2022-08-19T18:04:38.858Z,23.81
2022-08-19T18:07:06.621Z,23.79
2022-08-19T18:09:41.619Z,23.72
2022-08-19T18:12:12.646Z,23.74
2022-08-19T18:14:40.507Z,23.67
2022-08-19T18:17:12.762Z,23.51
2022-08-19T18:19:43.264Z,23.49
2022-08-19T18:22:22.526Z,23.47
2022-08-19T18:24:49.991Z,23.46
2022-08-19T18:27:17.145Z,23.35
2022-08-19T18:29:45.094Z,23.32
2022-08-19T18:32:12.986Z,23.24
2022-08-19T18:34:43.006Z,23.16
2022-08-19T18:37:10.999Z,23.16
2022-08-19T18:39:57.150Z,23.11
2022-08-19T18:42:43.259Z,22.99
2022-08-19T18:45:30.291Z,22.91
2022-08-19T18:48:24.237Z,22.83
2022-08-19T18:50:57.149Z,22.75
2022-08-19T18:53:27.398Z,22.66
2022-08-19T18:55:55.436Z,22.57
2022-08-19T18:58:34.271Z,22.52
2022-08-19T19:01:11.751Z,22.48
2022-08-19T19:03:45.227Z,22.43
2022-08-19T19:06:19.830Z,22.32
2022-08-19T19:08:48.313Z,22.16
2022-08-19T19:11:21.478Z,21.98
2022-08-19T19:13:49.744Z,21.92
2022-08-19T19:16:22.441Z,21.92
2022-08-19T19:18:52.622Z,21.92
2022-08-19T19:21:23.085Z,21.94
2022-08-19T19:23:51.780Z,21.85
2022-08-19T19:26:19.255Z,21.69
2022-08-19T19:28:47.833Z,21.77
2022-08-19T19:31:23.013Z,21.74
2022-08-19T19:33:50.894Z,21.70
2022-08-19T19:36:18.070Z,21.71
2022-08-19T19:38:48.619Z,21.57
2022-08-19T19:41:24.725Z,21.50
2022-08-19T19:44:29.909Z,21.42
2022-08-19T19:46:45.764Z,21.28
2022-08-19T19:49:13.672Z,21.34
2022-08-19T19:51:41.556Z,21.32
2022-08-19T19:54:15.425Z,21.35
2022-08-19T19:56:50.630Z,21.33
2022-08-19T19:59:18.520Z,21.34
2022-08-19T20:01:48.433Z,21.33
2022-08-19T20:04:17.008Z,21.28
2022-08-19T20:06:46.082Z,21.25
2022-08-19T20:09:19.488Z,21.25
2022-08-19T20:11:53.983Z,21.21
2022-08-19T20:14:27.213Z,21.15
2022-08-19T20:16:56.436Z,20.94
2022-08-19T20:19:27.701Z,20.82
2022-08-19T20:21:55.860Z,20.78
2022-08-19T20:24:26.999Z,20.76
2022-08-19T20:26:54.792Z,20.74
2022-08-19T20:29:39.208Z,20.72
2022-08-19T20:32:10.158Z,20.78
2022-08-19T20:34:38.004Z,20.75
2022-08-19T20:37:05.293Z,20.75
2022-08-19T20:39:32.405Z,20.74
2022-08-19T20:42:01.174Z,20.71
2022-08-19T20:44:28.290Z,20.72
2022-08-19T20:46:58.418Z,20.69
2022-08-19T20:49:27.714Z,20.68
2022-08-19T20:51:56.946Z,20.63
2022-08-19T20:54:25.014Z,20.58
2022-08-19T20:57:04.101Z,20.54
2022-08-19T20:59:31.506Z,20.46
2022-08-19T21:01:58.857Z,20.48
2022-08-19T21:04:28.532Z,20.52
2022-08-19T21:06:56.065Z,20.49
2022-08-19T21:09:23.375Z,20.52
2022-08-19T21:11:50.855Z,20.50
2022-08-19T21:14:18.101Z,20.50
2022-08-19T21:16:45.434Z,20.53
2022-08-19T21:19:13.025Z,20.48
2022-08-19T21:21:40.377Z,20.44
2022-08-19T21:24:08.029Z,20.39
2022-08-19T21:26:35.241Z,20.39
2022-08-19T21:29:02.401Z,20.39
2022-08-19T21:31:29.629Z,20.40
2022-08-19T21:33:56.839Z,20.41
2022-08-19T21:36:24.284Z,20.44
2022-08-19T21:38:51.782Z,20.46
2022-08-19T21:41:19.059Z,20.52
2022-08-19T21:43:46.304Z,20.53
2022-08-19T21:46:13.369Z,20.53
2022-08-19T21:48:40.406Z,20.51
2022-08-19T21:51:08.682Z,20.51
2022-08-19T21:53:35.902Z,20.53
2022-08-19T21:56:04.222Z,20.56
2022-08-19T21:58:31.346Z,20.49
2022-08-19T22:01:06.124Z,20.55
2022-08-19T22:03:35.851Z,20.64
2022-08-19T22:06:03.142Z,20.66
2022-08-19T22:08:31.696Z,20.71
2022-08-19T22:11:01.657Z,20.72
2022-08-19T22:13:30.876Z,20.68
2022-08-19T22:15:57.937Z,20.74
2022-08-19T22:18:24.993Z,20.73
2022-08-19T22:20:52.032Z,20.76
2022-08-19T22:23:19.146Z,20.76
2022-08-19T22:25:46.983Z,20.71
2022-08-19T22:28:19.119Z,20.72
2022-08-19T22:30:54.737Z,20.74
2022-08-19T22:33:22.629Z,20.70
2022-08-19T22:35:51.949Z,20.72
2022-08-19T22:38:19.391Z,20.77
2022-08-19T22:40:48.560Z,20.73
2022-08-19T22:43:22.510Z,20.73
2022-08-19T22:45:51.344Z,20.72
2022-08-19T22:48:20.895Z,20.75
2022-08-19T22:51:07.683Z,20.73
2022-08-19T22:53:37.137Z,20.67
2022-08-19T22:56:06.209Z,20.70
2022-08-19T22:58:33.421Z,20.67
2022-08-19T23:01:00.573Z,20.62
2022-08-19T23:03:27.654Z,20.65
2022-08-19T23:05:56.194Z,20.67
2022-08-19T23:08:23.563Z,20.61
2022-08-19T23:10:50.742Z,20.53
2022-08-19T23:13:18.759Z,20.53
2022-08-19T23:15:47.018Z,20.51
2022-08-19T23:18:14.892Z,20.46
2022-08-19T23:20:43.235Z,20.36
2022-08-19T23:23:13.321Z,20.32
2022-08-19T23:25:40.633Z,20.37
2022-08-19T23:28:26.366Z,20.37
2022-08-19T23:30:53.729Z,20.33
2022-08-19T23:33:51.119Z,20.22
2022-08-19T23:36:19.775Z,20.24
2022-08-19T23:38:49.006Z,20.14
2022-08-19T23:41:18.255Z,20.08
2022-08-19T23:43:45.669Z,20.09
2022-08-19T23:46:27.558Z,20.05
2022-08-19T23:48:57.035Z,19.94
2022-08-19T23:51:26.507Z,19.87
2022-08-19T23:53:54.135Z,19.72
2022-08-19T23:56:21.590Z,19.77
2022-08-19T23:58:49.415Z,19.82
